createdAt,value
2022-08-17T00:00:42.925Z,69.62
2022-08-17T00:03:17.353Z,69.68
2022-08-17T00:05:50.667Z,69.66
2022-08-17T00:08:24.702Z,69.75
2022-08-17T00:10:56.605Z,68.87
2022-08-17T00:13:30.312Z,69.28
2022-08-17T00:16:04.781Z,69.37
2022-08-17T00:19:06.377Z,69.21
2022-08-17T00:21:25.685Z,69.78
2022-08-17T00:24:15.323Z,69.64
2022-08-17T00:26:45.414Z,69.99
2022-08-17T00:29:20.044Z,69.60
2022-08-17T00:31:50.656Z,69.47
2022-08-17T00:34:19.817Z,68.99
2022-08-17T00:36:48.583Z,68.93
2022-08-17T00:39:17.311Z,69.61
2022-08-17T00:41:46.037Z,69.43
2022-08-17T00:44:15.636Z,69.64
2022-08-17T00:46:47.904Z,70.03
2022-08-17T00:49:19.757Z,70.07
2022-08-17T00:51:54.391Z,70.39
2022-08-17T00:54:28.502Z,70.34
2022-08-17T00:57:04.487Z,70.08
2022-08-17T00:59:39.237Z,69.96
2022-08-17T01:02:11.407Z,69.90
2022-08-17T01:04:44.050Z,69.83
2022-08-17T01:07:13.700Z,70.00
2022-08-17T01:09:44.577Z,70.27
2022-08-17T01:12:14.142Z,70.25
2022-08-17T01:14:44.184Z,70.56
2022-08-17T01:17:13.593Z,70.19
2022-08-17T01:19:45.430Z,70.30
2022-08-17T01:22:24.951Z,70.04
2022-08-17T01:25:01.211Z,70.55
2022-08-17T01:27:30.812Z,70.60
2022-08-17T01:30:56.881Z,71.27
2022-08-17T01:32:56.872Z,71.25
2022-08-17T01:35:25.955Z,71.37
2022-08-17T01:37:56.033Z,71.39
2022-08-17T01:40:35.327Z,71.56
2022-08-17T01:43:13.203Z,72.08
2022-08-17T01:45:47.827Z,71.80
2022-08-17T01:48:33.480Z,72.09
2022-08-17T01:51:03.208Z,71.64
2022-08-17T01:53:39.628Z,71.95
2022-08-17T01:56:13.598Z,71.92
2022-08-17T01:58:43.631Z,72.20
2022-08-17T02:01:22.980Z,72.15
2022-08-17T02:03:59.086Z,72.04
2022-08-17T02:06:31.444Z,72.39
2022-08-17T02:09:16.506Z,72.28
2022-08-17T02:11:47.391Z,72.58
2022-08-17T02:14:16.286Z,72.25
2022-08-17T02:16:45.326Z,72.54
2022-08-17T02:19:17.627Z,72.52
2022-08-17T02:21:50.236Z,72.67
2022-08-17T02:24:59.469Z,72.43
2022-08-17T02:27:14.919Z,72.94
2022-08-17T02:29:43.762Z,73.10
2022-08-17T02:32:20.903Z,73.15
2022-08-17T02:34:58.098Z,73.07
2022-08-17T02:37:28.261Z,72.85
2022-08-17T02:39:59.757Z,72.62
2022-08-17T02:42:37.331Z,73.17
2022-08-17T02:45:11.236Z,73.02
2022-08-17T02:47:40.337Z,72.81
2022-08-17T02:50:13.163Z,72.41
2022-08-17T02:53:02.220Z,73.20
2022-08-17T02:55:38.640Z,73.07
2022-08-17T02:58:12.348Z,73.47
2022-08-17T03:00:47.085Z,73.62
2022-08-17T03:03:19.702Z,73.11
2022-08-17T03:05:53.195Z,72.38
2022-08-17T03:08:23.503Z,72.78
2022-08-17T03:10:54.449Z,73.28
2022-08-17T03:13:23.345Z,73.30
2022-08-17T03:15:52.603Z,73.55
2022-08-17T03:18:25.617Z,73.64
2022-08-17T03:20:56.989Z,73.95
2022-08-17T03:23:27.784Z,73.16
2022-08-17T03:26:01.378Z,73.55
2022-08-17T03:28:31.089Z,72.93
2022-08-17T03:30:59.874Z,73.15
2022-08-17T03:33:28.652Z,73.87
2022-08-17T03:35:57.729Z,73.71
2022-08-17T03:38:27.388Z,73.51
2022-08-17T03:40:59.756Z,73.45
2022-08-17T03:43:33.721Z,73.67
2022-08-17T03:46:34.114Z,73.54
2022-08-17T03:49:24.421Z,74.00
2022-08-17T03:52:11.032Z,73.75
2022-08-17T03:54:58.109Z,73.24
2022-08-17T03:57:27.988Z,72.95
2022-08-17T03:59:58.312Z,73.36
2022-08-17T04:02:30.745Z,72.92
2022-08-17T04:05:00.663Z,73.34
2022-08-17T04:07:32.637Z,73.47
2022-08-17T04:10:02.025Z,73.31
2022-08-17T04:12:44.872Z,73.39
2022-08-17T04:15:15.751Z,73.67
2022-08-17T04:17:45.959Z,73.48
2022-08-17T04:20:17.927Z,73.13
2022-08-17T04:22:59.659Z,73.51
2022-08-17T04:28:15.876Z,73.50
2022-08-17T04:30:48.777Z,74.04
2022-08-17T04:33:20.221Z,73.63
2022-08-17T04:35:52.446Z,73.29
2022-08-17T04:38:26.810Z,73.42
2022-08-17T04:41:14.327Z,74.10
2022-08-17T04:43:45.516Z,74.07
2022-08-17T04:46:18.643Z,73.68
2022-08-17T04:48:50.855Z,73.93
2022-08-17T04:51:24.617Z,74.39
2022-08-17T04:53:58.117Z,74.11
2022-08-17T04:56:28.943Z,73.83
2022-08-17T04:59:01.285Z,74.15
2022-08-17T05:01:35.738Z,74.43
2022-08-17T05:04:33.197Z,74.47
2022-08-17T05:06:58.160Z,74.66
2022-08-17T05:09:26.926Z,75.20
2022-08-17T05:11:56.301Z,75.14
2022-08-17T05:14:32.413Z,75.00
2022-08-17T05:17:07.051Z,75.61
2022-08-17T05:19:38.313Z,75.34
2022-08-17T05:22:07.427Z,75.24
2022-08-17T05:24:42.777Z,75.16
2022-08-17T05:27:17.790Z,75.53
2022-08-17T05:29:47.961Z,75.13
2022-08-17T05:32:38.184Z,75.38
2022-08-17T05:35:10.440Z,75.61
2022-08-17T05:37:39.216Z,75.49
2022-08-17T05:40:10.086Z,75.54
2022-08-17T05:42:38.925Z,76.05
2022-08-17T05:45:09.643Z,75.77
2022-08-17T05:47:41.109Z,76.04
2022-08-17T05:50:13.439Z,76.19
2022-08-17T05:52:59.054Z,75.92
2022-08-17T05:55:41.476Z,76.21
2022-08-17T05:58:26.390Z,75.75
2022-08-17T06:01:09.091Z,75.69
2022-08-17T06:03:50.684Z,75.54
2022-08-17T06:06:35.755Z,75.00
2022-08-17T06:09:33.476Z,75.14
2022-08-17T06:12:28.174Z,74.53
2022-08-17T06:15:15.172Z,74.42
2022-08-17T06:17:45.059Z,74.32
2022-08-17T06:20:17.237Z,74.58
2022-08-17T06:22:51.174Z,74.64
2022-08-17T06:25:33.127Z,74.55
2022-08-17T06:28:09.563Z,74.79
2022-08-17T06:30:59.534Z,74.68
2022-08-17T06:33:41.210Z,75.11
2022-08-17T06:36:34.106Z,74.95
2022-08-17T06:39:24.558Z,74.09
2022-08-17T06:42:54.959Z,73.78
2022-08-17T06:45:09.912Z,73.55
2022-08-17T06:47:48.891Z,74.01
2022-08-17T06:50:27.351Z,73.82
2022-08-17T06:53:21.034Z,73.17
2022-08-17T06:55:59.994Z,72.73
2022-08-17T06:58:31.977Z,72.04
2022-08-17T07:01:08.873Z,71.28
2022-08-17T07:03:54.701Z,71.57
2022-08-17T07:06:29.070Z,71.43
2022-08-17T07:09:05.620Z,71.10
2022-08-17T07:11:46.449Z,70.48
2022-08-17T07:14:33.357Z,70.29
2022-08-17T07:17:10.249Z,70.15
2022-08-17T07:19:45.473Z,69.34
2022-08-17T07:22:30.367Z,69.53
2022-08-17T07:25:21.675Z,68.00
2022-08-17T07:27:54.906Z,67.03
2022-08-17T07:30:27.462Z,65.17
2022-08-17T07:33:01.625Z,64.80
2022-08-17T07:35:41.335Z,63.56
2022-08-17T07:38:24.398Z,62.56
2022-08-17T07:41:06.350Z,62.76
2022-08-17T07:43:38.195Z,61.17
2022-08-17T07:46:35.796Z,60.76
2022-08-17T07:49:35.167Z,60.15
2022-08-17T07:52:48.173Z,58.80
2022-08-17T07:54:59.110Z,58.48
2022-08-17T07:57:35.943Z,57.33
2022-08-17T08:00:32.317Z,56.65
2022-08-17T08:03:18.535Z,56.32
2022-08-17T08:05:54.620Z,55.43
2022-08-17T08:08:31.104Z,54.27
2022-08-17T08:11:06.329Z,53.03
2022-08-17T08:13:42.847Z,52.80
2022-08-17T08:16:25.586Z,52.90
2022-08-17T08:18:58.358Z,52.98
2022-08-17T08:21:43.912Z,51.05
2022-08-17T08:24:46.747Z,49.17
2022-08-17T08:27:39.006Z,49.04
2022-08-17T08:30:15.490Z,49.34
2022-08-17T08:33:21.949Z,49.71
2022-08-17T08:35:58.627Z,49.72
2022-08-17T08:38:43.325Z,48.60
2022-08-17T08:41:39.584Z,48.89
2022-08-17T08:45:00.974Z,45.46
2022-08-17T08:48:12.757Z,45.83
2022-08-17T08:51:05.919Z,44.07
2022-08-17T08:53:53.336Z,44.51
2022-08-17T08:56:35.456Z,43.89
2022-08-17T08:59:26.096Z,43.28
2022-08-17T09:02:12.877Z,44.86
2022-08-17T09:05:14.372Z,43.25
2022-08-17T09:07:56.347Z,41.22
2022-08-17T09:10:35.054Z,41.20
2022-08-17T09:13:22.150Z,41.20
2022-08-17T09:15:59.064Z,39.75
2022-08-17T09:19:00.639Z,39.26
2022-08-17T09:21:33.928Z,40.62
2022-08-17T09:24:13.113Z,39.69
2022-08-17T09:26:54.445Z,39.13
2022-08-17T09:29:27.978Z,37.53
2022-08-17T09:32:01.790Z,37.50
2022-08-17T09:34:39.131Z,37.62
2022-08-17T09:37:28.522Z,37.17
2022-08-17T09:40:14.939Z,37.69
2022-08-17T09:42:51.053Z,37.43
2022-08-17T09:45:35.884Z,37.09
2022-08-17T09:48:28.284Z,37.32
2022-08-17T09:51:09.045Z,38.15
2022-08-17T09:53:41.139Z,40.41
2022-08-17T09:56:46.021Z,39.56
2022-08-17T09:59:42.219Z,39.49
2022-08-17T10:02:51.698Z,38.03
2022-08-17T10:05:28.608Z,36.58
2022-08-17T10:08:10.615Z,35.27
2022-08-17T10:10:56.512Z,35.15
2022-08-17T10:13:37.313Z,36.06
2022-08-17T10:16:15.343Z,37.08
2022-08-17T10:19:02.157Z,36.67
2022-08-17T10:22:00.850Z,35.47
2022-08-17T10:25:21.330Z,32.06
2022-08-17T10:27:52.992Z,32.32
2022-08-17T10:30:26.759Z,32.73
2022-08-17T10:33:01.207Z,33.69
2022-08-17T10:35:44.275Z,32.46
2022-08-17T10:38:46.701Z,34.30
2022-08-17T10:41:30.481Z,34.16
2022-08-17T10:44:40.321Z,33.22
2022-08-17T10:47:11.786Z,34.84
2022-08-17T10:49:45.768Z,33.74
2022-08-17T10:52:52.340Z,34.55
2022-08-17T10:55:21.646Z,34.43
2022-08-17T10:57:54.947Z,31.72
2022-08-17T11:01:04.141Z,31.67
2022-08-17T11:03:33.392Z,30.72
2022-08-17T11:06:18.309Z,31.95
2022-08-17T11:09:30.762Z,30.93
2022-08-17T11:12:36.962Z,31.91
2022-08-17T11:15:30.867Z,30.85
2022-08-17T11:18:28.711Z,29.68
2022-08-17T11:21:40.657Z,29.91
2022-08-17T11:24:24.205Z,29.98
2022-08-17T11:27:13.596Z,28.92
2022-08-17T11:29:58.094Z,27.02
2022-08-17T11:32:38.533Z,27.37
2022-08-17T11:35:40.074Z,27.87
2022-08-17T11:38:25.409Z,27.59
2022-08-17T11:41:21.509Z,29.68
2022-08-17T11:44:23.501Z,31.00
2022-08-17T11:47:32.840Z,32.19
2022-08-17T11:51:02.800Z,31.74
2022-08-17T11:57:00.884Z,32.21
2022-08-17T12:00:00.176Z,32.00
2022-08-17T12:03:09.802Z,30.38
2022-08-17T12:05:40.314Z,30.10
2022-08-17T12:08:21.367Z,29.29
2022-08-17T12:11:07.519Z,29.48
2022-08-17T12:13:50.586Z,28.71
2022-08-17T12:16:22.120Z,28.10
2022-08-17T12:18:57.632Z,28.97
2022-08-17T12:21:48.790Z,29.97
2022-08-17T12:24:32.845Z,30.37
2022-08-17T12:27:07.058Z,31.41
2022-08-17T12:29:39.981Z,29.49
2022-08-17T12:32:17.845Z,28.87
2022-08-17T12:34:49.479Z,28.56
2022-08-17T12:37:24.578Z,28.10
2022-08-17T12:39:59.821Z,30.01
2022-08-17T12:42:34.858Z,29.70
2022-08-17T12:45:04.987Z,28.66
2022-08-17T12:47:38.858Z,30.01
2022-08-17T12:50:28.783Z,27.71
2022-08-17T12:53:02.710Z,27.35
2022-08-17T12:55:39.015Z,29.21
2022-08-17T12:58:14.788Z,31.28
2022-08-17T13:00:51.964Z,28.03
2022-08-17T13:03:24.450Z,28.36
2022-08-17T13:06:00.679Z,27.46
2022-08-17T13:08:37.368Z,25.40
2022-08-17T13:11:09.869Z,25.76
2022-08-17T13:13:42.721Z,25.34
2022-08-17T13:16:20.629Z,25.11
2022-08-17T13:18:53.111Z,26.77
2022-08-17T13:21:30.704Z,27.39
2022-08-17T13:24:07.733Z,27.61
2022-08-17T13:26:41.613Z,27.30
2022-08-17T13:29:24.192Z,27.14
2022-08-17T13:31:58.872Z,26.57
2022-08-17T13:35:01.636Z,25.68
2022-08-17T13:37:34.908Z,26.63
2022-08-17T13:40:33.109Z,25.82
2022-08-17T13:43:03.380Z,26.86
2022-08-17T13:45:52.443Z,26.12
2022-08-17T13:48:29.575Z,26.25
2022-08-17T13:51:23.836Z,23.22
2022-08-17T13:54:05.322Z,23.76
2022-08-17T13:57:00.217Z,24.39
2022-08-17T13:59:54.217Z,23.60
2022-08-17T14:02:28.279Z,23.20
2022-08-17T14:05:00.626Z,25.01
2022-08-17T14:07:36.196Z,24.88
2022-08-17T14:10:13.759Z,26.09
2022-08-17T14:12:46.657Z,27.28
2022-08-17T14:15:20.666Z,25.74
2022-08-17T14:17:50.436Z,26.70
2022-08-17T14:20:24.709Z,26.97
2022-08-17T14:22:56.332Z,25.11
2022-08-17T14:25:30.219Z,25.44
2022-08-17T14:28:00.895Z,24.33
2022-08-17T14:30:30.907Z,21.83
2022-08-17T14:33:02.182Z,20.97
2022-08-17T14:35:31.310Z,21.18
2022-08-17T14:38:00.174Z,22.95
2022-08-17T14:40:29.651Z,21.50
2022-08-17T14:43:01.331Z,21.09
2022-08-17T14:45:32.665Z,21.59
2022-08-17T14:48:05.821Z,19.59
2022-08-17T14:50:36.120Z,20.94
2022-08-17T14:53:06.986Z,22.61
2022-08-17T14:55:39.873Z,20.77
2022-08-17T14:58:10.523Z,22.36
2022-08-17T15:00:40.956Z,22.64
2022-08-17T15:03:11.578Z,25.44
2022-08-17T15:05:44.263Z,22.97
2022-08-17T15:08:13.064Z,24.81
2022-08-17T15:10:42.240Z,24.71
2022-08-17T15:13:23.691Z,25.39
2022-08-17T15:15:53.161Z,24.79
2022-08-17T15:18:22.153Z,26.20
2022-08-17T15:20:52.842Z,26.32
2022-08-17T15:23:25.037Z,28.10
2022-08-17T15:25:56.313Z,25.98
2022-08-17T15:28:26.464Z,25.78
2022-08-17T15:30:55.636Z,27.75
2022-08-17T15:33:29.500Z,27.58
2022-08-17T15:36:00.251Z,29.04
2022-08-17T15:38:30.590Z,28.88
2022-08-17T15:40:59.392Z,28.52
2022-08-17T15:43:32.739Z,27.92
2022-08-17T15:46:05.696Z,28.59
2022-08-17T15:48:42.637Z,29.64
2022-08-17T15:51:15.289Z,28.95
2022-08-17T15:53:47.947Z,27.16
2022-08-17T15:56:17.591Z,25.10
2022-08-17T15:58:49.828Z,28.92
2022-08-17T16:01:57.387Z,28.13
2022-08-17T16:04:30.028Z,27.03
2022-08-17T16:07:00.430Z,29.09
2022-08-17T16:09:29.720Z,30.58
2022-08-17T16:11:58.496Z,30.88
2022-08-17T16:14:32.407Z,31.43
2022-08-17T16:17:02.737Z,30.55
2022-08-17T16:19:31.609Z,33.82
2022-08-17T16:22:00.490Z,34.76
2022-08-17T16:24:29.377Z,34.87
2022-08-17T16:26:58.266Z,33.86
2022-08-17T16:29:28.545Z,33.51
2022-08-17T16:31:57.636Z,34.45
2022-08-17T16:34:26.563Z,35.53
2022-08-17T16:36:56.508Z,36.28
2022-08-17T16:39:29.398Z,35.37
2022-08-17T16:41:59.155Z,36.89
2022-08-17T16:44:31.820Z,36.13
2022-08-17T16:47:01.398Z,35.30
2022-08-17T16:49:37.407Z,34.88
2022-08-17T16:52:11.313Z,35.66
2022-08-17T16:54:43.582Z,36.17
2022-08-17T16:57:13.486Z,37.92
2022-08-17T16:59:47.932Z,38.39
2022-08-17T17:02:25.386Z,39.29
2022-08-17T17:05:02.726Z,39.49
2022-08-17T17:07:57.030Z,39.76
2022-08-17T17:10:34.774Z,40.31
2022-08-17T17:13:09.611Z,40.47
2022-08-17T17:16:00.253Z,40.11
2022-08-17T17:18:41.412Z,41.02
2022-08-17T17:21:17.618Z,41.80
2022-08-17T17:23:57.788Z,42.04
2022-08-17T17:26:51.729Z,41.41
2022-08-17T17:29:47.821Z,42.22
2022-08-17T17:32:29.466Z,42.36
2022-08-17T17:35:08.200Z,42.87
2022-08-17T17:37:39.188Z,43.62
2022-08-17T17:40:19.190Z,44.03
2022-08-17T17:42:50.805Z,44.50
2022-08-17T17:45:26.157Z,44.20
2022-08-17T17:47:56.535Z,44.14
2022-08-17T17:50:37.705Z,44.37
2022-08-17T17:53:16.332Z,44.66
2022-08-17T17:56:06.605Z,44.70
2022-08-17T17:58:59.800Z,45.12
2022-08-17T18:01:49.141Z,45.00
2022-08-17T18:04:32.118Z,45.94
2022-08-17T18:07:29.387Z,46.60
2022-08-17T18:10:19.454Z,46.64
2022-08-17T18:13:09.742Z,45.94
2022-08-17T18:15:51.042Z,46.31
2022-08-17T18:18:38.754Z,46.60
2022-08-17T18:21:16.991Z,47.06
2022-08-17T18:24:00.498Z,47.65
2022-08-17T18:26:48.547Z,47.21
2022-08-17T18:29:38.800Z,47.90
2022-08-17T18:32:35.291Z,47.99
2022-08-17T18:35:30.344Z,48.13
2022-08-17T18:38:22.818Z,48.58
2022-08-17T18:41:06.617Z,48.91
2022-08-17T18:43:52.912Z,49.22
2022-08-17T18:46:30.224Z,49.24
2022-08-17T18:49:02.488Z,49.25
2022-08-17T18:51:42.047Z,49.67
2022-08-17T18:54:23.147Z,49.73
2022-08-17T18:56:57.873Z,50.35
2022-08-17T18:59:41.212Z,50.78
2022-08-17T19:02:44.718Z,50.67
2022-08-17T19:05:32.316Z,50.51
2022-08-17T19:08:21.782Z,50.94
2022-08-17T19:10:58.713Z,50.33
2022-08-17T19:13:33.370Z,50.43
2022-08-17T19:16:15.433Z,50.50
2022-08-17T19:18:53.175Z,51.13
2022-08-17T19:21:28.451Z,50.93
2022-08-17T19:24:06.374Z,51.71
2022-08-17T19:26:54.309Z,51.74
2022-08-17T19:29:34.347Z,51.21
2022-08-17T19:32:04.267Z,51.04
2022-08-17T19:34:36.923Z,50.86
2022-08-17T19:37:15.082Z,51.57
2022-08-17T19:40:00.406Z,51.37
2022-08-17T19:42:49.904Z,51.58
2022-08-17T19:45:37.263Z,51.76
2022-08-17T19:48:18.438Z,52.06
2022-08-17T19:50:55.413Z,52.18
2022-08-17T19:54:03.887Z,52.26
2022-08-17T19:56:43.674Z,52.17
2022-08-17T19:59:24.697Z,51.88
2022-08-17T20:02:01.197Z,51.23
2022-08-17T20:04:41.212Z,51.88
2022-08-17T20:07:18.806Z,52.65
2022-08-17T20:09:55.028Z,52.84
2022-08-17T20:12:34.735Z,52.63
2022-08-17T20:15:13.522Z,53.05
2022-08-17T20:17:47.212Z,53.04
2022-08-17T20:20:29.803Z,53.50
2022-08-17T20:23:11.617Z,53.53
2022-08-17T20:26:08.349Z,53.42
2022-08-17T20:28:39.973Z,53.85
2022-08-17T20:32:05.886Z,54.05
2022-08-17T20:34:39.808Z,53.56
2022-08-17T20:37:26.577Z,53.89
2022-08-17T20:40:20.621Z,54.09
2022-08-17T20:42:49.787Z,54.29
2022-08-17T20:46:13.970Z,54.79
2022-08-17T20:48:49.704Z,54.54
2022-08-17T20:51:32.550Z,54.34
2022-08-17T20:54:31.550Z,54.21
2022-08-17T20:57:06.781Z,54.57
2022-08-17T20:59:58.469Z,55.14
2022-08-17T21:02:30.447Z,55.35
2022-08-17T21:05:38.762Z,55.49
2022-08-17T21:08:18.179Z,55.94
2022-08-17T21:10:48.381Z,55.87
2022-08-17T21:13:59.773Z,56.09
2022-08-17T21:16:45.258Z,55.48
2022-08-17T21:19:54.230Z,56.07
2022-08-17T21:22:57.813Z,55.62
2022-08-17T21:25:52.929Z,55.95
2022-08-17T21:29:00.474Z,56.72
2022-08-17T21:31:37.727Z,56.00
2022-08-17T21:34:30.150Z,56.74
2022-08-17T21:37:35.045Z,57.32
2022-08-17T21:40:26.466Z,57.03
2022-08-17T21:43:01.593Z,57.64
2022-08-17T21:45:35.663Z,57.45
2022-08-17T21:48:17.558Z,57.42
2022-08-17T21:50:59.259Z,57.24
2022-08-17T21:53:39.853Z,57.19
2022-08-17T21:56:14.194Z,57.68
2022-08-17T21:58:48.531Z,57.68
2022-08-17T22:01:25.766Z,57.58
2022-08-17T22:04:04.196Z,58.04
2022-08-17T22:06:39.918Z,58.36
2022-08-17T22:09:21.307Z,58.44
2022-08-17T22:12:03.631Z,58.39
2022-08-17T22:14:52.606Z,58.78
2022-08-17T22:17:26.634Z,58.78
2022-08-17T22:19:59.929Z,59.00
2022-08-17T22:22:35.542Z,58.87
2022-08-17T22:25:08.604Z,59.26
2022-08-17T22:27:56.611Z,59.66
2022-08-17T22:30:34.426Z,59.91
2022-08-17T22:33:39.726Z,60.17
2022-08-17T22:36:32.700Z,59.69
2022-08-17T22:39:23.545Z,59.49
2022-08-17T22:41:57.186Z,59.83
2022-08-17T22:44:33.345Z,60.35
2022-08-17T22:47:11.308Z,60.42
2022-08-17T22:49:53.175Z,59.64
2022-08-17T22:52:35.326Z,60.27
2022-08-17T22:55:33.558Z,60.43
2022-08-17T22:58:28.051Z,60.80
2022-08-17T23:00:58.749Z,60.86
2022-08-17T23:03:28.429Z,60.96
2022-08-17T23:06:09.730Z,60.98
2022-08-17T23:08:48.169Z,61.07
2022-08-17T23:11:17.144Z,60.77
2022-08-17T23:13:46.112Z,61.31
2022-08-17T23:16:16.218Z,61.45
2022-08-17T23:18:49.429Z,61.24
2022-08-17T23:21:27.226Z,61.16
2022-08-17T23:23:56.858Z,61.58
2022-08-17T23:26:27.778Z,61.69
2022-08-17T23:28:56.605Z,62.37
2022-08-17T23:31:27.611Z,62.06
2022-08-17T23:33:56.365Z,61.92
2022-08-17T23:36:25.139Z,61.96
2022-08-17T23:38:54.612Z,61.87
2022-08-17T23:41:26.949Z,62.29
2022-08-17T23:43:56.497Z,62.20
2022-08-17T23:46:26.784Z,62.82
2022-08-17T23:48:55.817Z,62.71
2022-08-17T23:51:29.004Z,62.25
2022-08-17T23:54:07.896Z,62.65
2022-08-17T23:56:42.073Z,63.01
2022-08-17T23:59:11.743Z,62.62
